Portada
METAR-TAF:

METAR-TAF

Aeroports :

Illa de Pasqua, Xile

latitud: 27-09S, longitud: 109-25W, altitud: 51 m

Observació

L'informe es va fer fa 43 minuts, a les 01:00 UTC
Vent 4 kt del Nord/Nord-Est, variant entre Oest/Nord-Oest i Est/Nord-Est
Temperatura 20°C
Humitat 73%
Pressió 1026 hPa
Visibilitat 10 km o més
Cel ennuvolat a una alçada de 3100 ft

METAR: SCIP 180100Z 02004KT 300V070 9999 BKN031 20/15 Q1026 NOSIG

Hora: 19:43 (01:43 UTC)

Pronòstic

L'informe es va fer fa 3 hores i 7 minuts, a les 22:36 UTC
Pronòstic vàlid del 18 a les 00 UTC al 19 a les 00 UTC
Vent 6 kt del Nord
Visibilitat 10 km o més
Núvols disperses a una alçada de 3000 ft
Temporalment
l' 18 a les 02 UTC al 18 a les 10 UTC
Vent 2 kt amb direcció variable
Visibilitat: 5000 m
Núvols disperses a una alçada de 1500 ft
Cel ennuvolat a una alçada de 2500 ft
xàfecs de pluja,

TAF: SCIP 172236Z 1800/1900 01006KT 9999 SCT030 TN16/1810Z TX23/1820Z TEMPO 1802/1810 VRB02KT 5000 -SHRA SCT015 BKN025

Observacions i pronòstics meteorològics de més de 4000 aeroports (METAR i TAF).

Les estacions disponibles són els punts grocs i vermells al mapa.

Posi el ratolí al punt desitjat per veure el nom de l'estació.

Feu clic per veure les observacions i els pronòstics meteorològics.

Per canviar el mapa: feu clic els botons verds amb una creu de color negre per apropar; al botó verd amb un guió per allunyar la imatge; o en les fletxes verdes per a mapes adjacents.


METAR-TAF: